createdAt,value
2019-02-24T00:00:08.350Z,63.55
2019-02-24T00:02:38.914Z,63.86
2019-02-24T00:05:09.358Z,63.93
2019-02-24T00:07:39.811Z,64.22
2019-02-24T00:10:10.276Z,64.10
2019-02-24T00:12:41.167Z,64.32
2019-02-24T00:15:11.639Z,64.45
2019-02-24T00:17:42.457Z,64.93
2019-02-24T00:20:12.905Z,65.28
2019-02-24T00:22:43.690Z,65.36
2019-02-24T00:25:14.133Z,65.48
2019-02-24T00:27:44.574Z,65.60
2019-02-24T00:30:15.080Z,65.64
2019-02-24T00:32:45.527Z,65.40
2019-02-24T00:35:15.998Z,65.40
2019-02-24T00:37:46.501Z,65.47
2019-02-24T00:40:16.949Z,65.46
2019-02-24T00:42:47.786Z,65.63
2019-02-24T00:45:18.239Z,65.83
2019-02-24T00:47:48.678Z,65.88
2019-02-24T00:50:19.173Z,66.03
2019-02-24T00:52:49.614Z,65.68
2019-02-24T00:55:20.057Z,65.38
2019-02-24T00:57:50.548Z,65.90
2019-02-24T01:00:21.335Z,64.72
2019-02-24T01:02:52.154Z,64.66
2019-02-24T01:05:23.104Z,64.48
2019-02-24T01:07:53.559Z,64.40
2019-02-24T01:10:24.430Z,63.82
2019-02-24T01:12:54.918Z,63.23
2019-02-24T01:15:25.753Z,63.89
2019-02-24T01:17:56.255Z,63.59
2019-02-24T01:20:26.706Z,63.83
2019-02-24T01:22:57.193Z,63.15
2019-02-24T01:25:27.663Z,63.19
2019-02-24T01:27:58.101Z,62.50
2019-02-24T01:30:28.585Z,62.04
2019-02-24T01:32:59.023Z,61.30
2019-02-24T01:35:29.933Z,61.05
2019-02-24T01:38:00.751Z,61.01
2019-02-24T01:40:31.194Z,61.63
2019-02-24T01:43:01.674Z,62.52
2019-02-24T01:45:32.113Z,62.98
2019-02-24T01:48:02.560Z,63.45
2019-02-24T01:50:33.598Z,63.62
2019-02-24T01:53:04.037Z,63.04
2019-02-24T01:55:34.503Z,62.75
2019-02-24T01:58:04.946Z,62.98
2019-02-24T02:00:35.419Z,63.56
2019-02-24T02:03:05.966Z,63.40
2019-02-24T02:05:36.457Z,62.73
2019-02-24T02:08:06.891Z,62.15
2019-02-24T02:10:37.333Z,61.89
2019-02-24T02:13:08.198Z,61.92
2019-02-24T02:15:38.682Z,61.80
2019-02-24T02:18:09.520Z,62.09
2019-02-24T02:20:40.022Z,62.06
2019-02-24T02:23:10.512Z,62.24
2019-02-24T02:25:41.018Z,62.24
2019-02-24T02:28:11.943Z,62.34
2019-02-24T02:30:42.997Z,62.86
2019-02-24T02:33:13.444Z,62.89
2019-02-24T02:35:43.873Z,63.22
2019-02-24T02:38:14.361Z,63.09
2019-02-24T02:40:44.805Z,62.57
2019-02-24T02:43:15.243Z,62.43
2019-02-24T02:45:45.730Z,62.28
2019-02-24T02:48:16.161Z,62.67
2019-02-24T02:50:47.068Z,62.35
2019-02-24T02:53:17.494Z,62.82
2019-02-24T02:55:47.941Z,62.87
2019-02-24T02:58:18.428Z,63.03
2019-02-24T03:00:49.369Z,61.13
2019-02-24T03:03:19.803Z,60.14
2019-02-24T03:06:01.278Z,59.86
2019-02-24T03:08:51.068Z,59.76
2019-02-24T03:11:21.705Z,60.24
2019-02-24T03:13:52.526Z,60.97
2019-02-24T03:16:26.359Z,60.93
2019-02-24T03:18:56.799Z,60.65
2019-02-24T03:21:27.241Z,57.42
2019-02-24T03:23:57.710Z,59.28
2019-02-24T03:26:28.151Z,59.21
2019-02-24T03:29:04.052Z,58.25
2019-02-24T03:31:31.133Z,58.17
2019-02-24T03:34:01.963Z,59.81
2019-02-24T03:36:32.403Z,60.36
2019-02-24T03:39:03.016Z,60.54
2019-02-24T03:41:33.482Z,60.60
2019-02-24T03:44:03.988Z,59.26
2019-02-24T03:46:34.425Z,60.46
2019-02-24T03:49:05.137Z,60.35
2019-02-24T03:51:36.090Z,60.11
2019-02-24T03:54:06.526Z,60.35
2019-02-24T03:56:36.976Z,60.00
2019-02-24T03:59:15.104Z,60.60
2019-02-24T04:01:40.019Z,59.70
2019-02-24T04:04:11.867Z,59.58
2019-02-24T04:06:42.315Z,60.62
2019-02-24T04:09:13.614Z,61.10
2019-02-24T04:11:44.099Z,61.62
2019-02-24T04:14:14.534Z,61.96
2019-02-24T04:16:44.998Z,61.46
2019-02-24T04:19:15.471Z,60.93
2019-02-24T04:21:45.957Z,61.19
2019-02-24T04:24:16.397Z,61.70
2019-02-24T04:26:46.836Z,61.69
2019-02-24T04:29:24.503Z,61.77
2019-02-24T04:31:49.419Z,62.13
2019-02-24T04:34:19.904Z,62.34
2019-02-24T04:36:50.332Z,62.54
2019-02-24T04:39:21.121Z,62.73
2019-02-24T04:41:51.752Z,62.97
2019-02-24T04:44:22.175Z,62.95
2019-02-24T04:46:52.901Z,62.86
2019-02-24T04:49:23.335Z,62.80
2019-02-24T04:51:53.834Z,62.79
2019-02-24T04:54:24.639Z,62.82
2019-02-24T04:56:55.494Z,62.79
2019-02-24T04:59:34.819Z,61.70
2019-02-24T05:01:58.071Z,59.17
2019-02-24T05:04:28.524Z,60.21
2019-02-24T05:06:58.971Z,59.20
2019-02-24T05:09:29.440Z,58.37
2019-02-24T05:11:59.871Z,59.08
2019-02-24T05:14:30.792Z,59.57
2019-02-24T05:17:01.626Z,60.25
2019-02-24T05:19:32.059Z,58.69
2019-02-24T05:22:03.093Z,57.72
2019-02-24T05:24:33.527Z,58.00
2019-02-24T05:27:04.694Z,60.21
2019-02-24T05:29:44.825Z,58.08
2019-02-24T05:32:07.607Z,58.69
2019-02-24T05:34:38.068Z,58.71
2019-02-24T05:37:08.508Z,58.76
2019-02-24T05:39:39.717Z,59.17
2019-02-24T05:42:10.314Z,58.89
2019-02-24T05:44:41.719Z,59.31
2019-02-24T05:47:12.162Z,59.70
2019-02-24T05:49:44.344Z,60.14
2019-02-24T05:52:14.804Z,60.77
2019-02-24T05:54:45.243Z,61.16
2019-02-24T05:59:55.617Z,61.67
2019-02-24T06:02:26.176Z,61.77
2019-02-24T06:04:57.470Z,62.04
2019-02-24T06:07:28.265Z,61.95
2019-02-24T06:09:58.711Z,60.31
2019-02-24T06:12:29.179Z,60.84
2019-02-24T06:14:59.609Z,59.14
2019-02-24T06:17:30.537Z,59.90
2019-02-24T06:20:01.437Z,60.70
2019-02-24T06:22:31.907Z,60.55
2019-02-24T06:25:02.342Z,60.06
2019-02-24T06:27:33.642Z,59.79
2019-02-24T06:30:05.783Z,58.89
2019-02-24T06:32:36.368Z,59.61
2019-02-24T06:35:07.076Z,59.79
2019-02-24T06:37:37.522Z,60.21
2019-02-24T06:40:08.246Z,60.47
2019-02-24T06:42:38.729Z,60.52
2019-02-24T06:45:09.589Z,60.54
2019-02-24T06:47:40.431Z,60.35
2019-02-24T06:50:11.022Z,60.89
2019-02-24T06:52:41.830Z,60.99
2019-02-24T06:55:12.372Z,61.00
2019-02-24T06:57:43.209Z,61.23
2019-02-24T07:00:14.506Z,61.20
2019-02-24T07:02:45.193Z,61.20
2019-02-24T07:05:15.632Z,60.96
2019-02-24T07:07:46.114Z,61.27
2019-02-24T07:10:16.554Z,61.63
2019-02-24T07:12:46.997Z,61.70
2019-02-24T07:15:17.885Z,62.76
2019-02-24T07:17:48.828Z,63.17
2019-02-24T07:20:19.300Z,61.13
2019-02-24T07:22:49.757Z,60.91
2019-02-24T07:25:20.269Z,58.88
2019-02-24T07:27:51.274Z,57.78
2019-02-24T07:30:23.677Z,58.72
2019-02-24T07:32:54.145Z,58.20
2019-02-24T07:35:25.409Z,57.22
2019-02-24T07:37:56.033Z,56.51
2019-02-24T07:40:26.859Z,57.23
2019-02-24T07:42:57.287Z,56.45
2019-02-24T07:45:27.753Z,54.21
2019-02-24T07:47:59.169Z,53.74
2019-02-24T07:50:29.651Z,52.31
2019-02-24T07:53:00.093Z,54.52
2019-02-24T07:55:30.521Z,54.61
2019-02-24T07:58:01.935Z,54.56
2019-02-24T08:00:32.700Z,53.49
2019-02-24T08:03:03.139Z,53.22
2019-02-24T08:05:33.595Z,52.99
2019-02-24T08:08:04.108Z,53.33
2019-02-24T08:10:34.574Z,52.65
2019-02-24T08:13:05.013Z,53.23
2019-02-24T08:15:35.494Z,52.65
2019-02-24T08:18:06.314Z,52.45
2019-02-24T08:20:37.138Z,52.53
2019-02-24T08:23:08.011Z,52.28
2019-02-24T08:25:38.448Z,51.68
2019-02-24T08:28:09.174Z,51.86
2019-02-24T08:30:41.836Z,52.57
2019-02-24T08:33:11.794Z,52.78
2019-02-24T08:35:42.552Z,51.19
2019-02-24T08:38:12.984Z,51.71
2019-02-24T08:40:43.470Z,51.11
2019-02-24T08:43:13.905Z,49.00
2019-02-24T08:45:44.417Z,48.54
2019-02-24T08:48:14.909Z,48.21
2019-02-24T08:50:45.340Z,46.62
2019-02-24T08:53:15.845Z,46.40
2019-02-24T08:55:46.782Z,46.64
2019-02-24T08:58:17.261Z,45.86
2019-02-24T09:00:50.936Z,46.07
2019-02-24T09:03:19.912Z,45.37
2019-02-24T09:05:50.354Z,44.25
2019-02-24T09:08:21.243Z,46.01
2019-02-24T09:10:53.069Z,46.78
2019-02-24T09:13:23.654Z,45.17
2019-02-24T09:15:54.149Z,45.76
2019-02-24T09:18:24.588Z,44.27
2019-02-24T09:20:55.055Z,45.92
2019-02-24T09:23:25.496Z,45.23
2019-02-24T09:25:55.978Z,44.54
2019-02-24T09:28:26.410Z,42.63
2019-02-24T09:31:00.888Z,44.56
2019-02-24T09:33:29.076Z,43.96
2019-02-24T09:35:59.539Z,43.14
2019-02-24T09:38:30.852Z,41.05
2019-02-24T09:41:01.463Z,41.12
2019-02-24T09:43:32.310Z,41.84
2019-02-24T09:46:04.181Z,40.83
2019-02-24T09:48:34.672Z,41.30
2019-02-24T09:51:06.093Z,41.79
2019-02-24T09:53:37.643Z,41.96
2019-02-24T09:56:08.149Z,41.25
2019-02-24T09:58:38.585Z,41.95
2019-02-24T10:01:10.918Z,40.46
2019-02-24T10:03:41.204Z,40.26
2019-02-24T10:06:11.694Z,40.97
2019-02-24T10:08:43.022Z,38.83
2019-02-24T10:11:13.646Z,39.78
2019-02-24T10:13:44.461Z,39.03
2019-02-24T10:16:14.924Z,38.93
2019-02-24T10:18:45.362Z,36.49
2019-02-24T10:21:15.990Z,37.79
2019-02-24T10:23:46.442Z,36.61
2019-02-24T10:26:16.877Z,37.14
2019-02-24T10:28:47.835Z,37.30
2019-02-24T10:31:20.050Z,35.62
2019-02-24T10:33:50.763Z,36.89
2019-02-24T10:36:21.228Z,36.84
2019-02-24T10:38:51.665Z,36.79
2019-02-24T10:41:22.177Z,36.76
2019-02-24T10:43:53.426Z,35.69
2019-02-24T10:46:23.981Z,36.35
2019-02-24T10:49:03.060Z,34.85
2019-02-24T10:51:27.703Z,35.61
2019-02-24T10:53:59.313Z,33.80
2019-02-24T10:56:29.753Z,34.55
2019-02-24T10:59:03.674Z,33.80
2019-02-24T11:01:34.150Z,34.46
2019-02-24T11:04:05.028Z,33.52
2019-02-24T11:06:35.508Z,33.44
2019-02-24T11:09:08.217Z,34.03
2019-02-24T11:11:38.721Z,33.86
2019-02-24T11:14:09.618Z,34.50
2019-02-24T11:16:40.064Z,33.78
2019-02-24T11:19:10.552Z,33.13
2019-02-24T11:21:41.453Z,33.47
2019-02-24T11:24:11.893Z,32.90
2019-02-24T11:26:42.358Z,32.73
2019-02-24T11:29:12.808Z,31.33
2019-02-24T11:31:43.548Z,33.36
2019-02-24T11:34:13.976Z,32.18
2019-02-24T11:36:45.208Z,32.10
2019-02-24T11:39:15.698Z,32.83
2019-02-24T11:41:46.249Z,31.88
2019-02-24T11:44:16.717Z,30.48
2019-02-24T11:46:47.155Z,31.66
2019-02-24T11:49:17.638Z,33.35
2019-02-24T11:51:48.073Z,30.40
2019-02-24T11:54:18.574Z,31.03
2019-02-24T11:56:49.017Z,29.43
2019-02-24T11:59:19.459Z,29.90
2019-02-24T12:01:49.942Z,30.25
2019-02-24T12:04:20.805Z,31.83
2019-02-24T12:06:51.245Z,31.15
2019-02-24T12:09:21.712Z,31.25
2019-02-24T12:11:52.170Z,29.44
2019-02-24T12:14:22.933Z,29.23
2019-02-24T12:16:53.390Z,30.07
2019-02-24T12:19:23.848Z,28.81
2019-02-24T12:21:54.938Z,31.52
2019-02-24T12:24:25.406Z,29.03
2019-02-24T12:26:55.889Z,29.49
2019-02-24T12:29:26.511Z,30.21
2019-02-24T12:31:57.015Z,30.45
2019-02-24T12:34:27.446Z,30.78
2019-02-24T12:36:58.156Z,28.46
2019-02-24T12:39:28.647Z,29.72
2019-02-24T12:41:59.453Z,29.07
2019-02-24T12:44:30.236Z,30.26
2019-02-24T12:47:00.925Z,30.42
2019-02-24T12:49:31.386Z,28.74
2019-02-24T12:52:01.839Z,28.64
2019-02-24T12:54:32.337Z,29.00
2019-02-24T12:57:02.777Z,28.49
2019-02-24T12:59:33.896Z,28.03
2019-02-24T13:02:06.446Z,28.21
2019-02-24T13:04:36.883Z,28.45
2019-02-24T13:07:07.385Z,27.70
2019-02-24T13:09:37.834Z,27.79
2019-02-24T13:12:08.506Z,28.70
2019-02-24T13:14:38.951Z,27.64
2019-02-24T13:17:09.398Z,27.61
2019-02-24T13:19:39.875Z,28.14
2019-02-24T13:22:10.780Z,27.39
2019-02-24T13:24:41.317Z,27.06
2019-02-24T13:27:12.189Z,27.58
2019-02-24T13:29:42.645Z,27.54
2019-02-24T13:32:15.102Z,27.28
2019-02-24T13:34:45.278Z,27.77
2019-02-24T13:37:15.769Z,27.91
2019-02-24T13:39:46.234Z,26.41
2019-02-24T13:42:16.700Z,26.93
2019-02-24T13:44:47.161Z,26.69
2019-02-24T13:47:18.216Z,25.88
2019-02-24T13:49:48.675Z,26.12
2019-02-24T13:52:19.561Z,25.55
2019-02-24T13:54:50.004Z,26.01
2019-02-24T13:57:20.470Z,26.01
2019-02-24T13:59:50.914Z,27.80
2019-02-24T14:02:24.140Z,27.80
2019-02-24T14:04:53.874Z,25.75
2019-02-24T14:07:24.345Z,25.35
2019-02-24T14:09:54.817Z,25.93
2019-02-24T14:12:25.266Z,26.57
2019-02-24T14:14:56.110Z,25.81
2019-02-24T14:17:26.545Z,25.76
2019-02-24T14:19:57.035Z,25.76
2019-02-24T14:22:27.844Z,25.23
2019-02-24T14:24:58.373Z,25.73
2019-02-24T14:27:29.118Z,25.73
2019-02-24T14:29:59.748Z,25.59
2019-02-24T14:32:32.988Z,25.01
2019-02-24T14:35:02.375Z,26.91
2019-02-24T14:37:33.279Z,24.18
2019-02-24T14:40:03.728Z,23.34
2019-02-24T14:42:34.562Z,23.55
2019-02-24T14:45:05.498Z,24.38
2019-02-24T14:47:35.950Z,23.73
2019-02-24T14:50:07.175Z,23.51
2019-02-24T14:52:38.057Z,22.47
2019-02-24T14:55:08.839Z,23.19
2019-02-24T14:57:39.309Z,22.40
2019-02-24T15:00:12.250Z,20.91
2019-02-24T15:02:43.011Z,21.36
2019-02-24T15:05:13.902Z,24.15
2019-02-24T15:07:44.403Z,25.98
2019-02-24T15:10:15.694Z,24.86
2019-02-24T15:12:46.213Z,24.89
2019-02-24T15:15:18.029Z,25.73
2019-02-24T15:17:48.490Z,26.05
2019-02-24T15:20:19.580Z,25.04
2019-02-24T15:22:50.046Z,26.76
2019-02-24T15:25:21.231Z,27.08
2019-02-24T15:27:51.779Z,27.19
2019-02-24T15:30:25.583Z,27.98
2019-02-24T15:32:56.459Z,28.45
2019-02-24T15:35:26.915Z,30.10
2019-02-24T15:37:57.402Z,30.56
2019-02-24T15:40:27.891Z,31.32
2019-02-24T15:42:58.349Z,30.33
2019-02-24T15:45:28.847Z,30.65
2019-02-24T15:47:59.323Z,31.62
2019-02-24T15:50:29.782Z,32.88
2019-02-24T15:53:00.580Z,33.55
2019-02-24T15:55:31.454Z,33.87
2019-02-24T15:58:01.956Z,33.84
2019-02-24T16:00:33.291Z,33.33
2019-02-24T16:03:04.182Z,33.27
2019-02-24T16:05:35.526Z,33.87
2019-02-24T16:08:06.259Z,34.32
2019-02-24T16:10:36.755Z,34.47
2019-02-24T16:13:16.505Z,33.77
2019-02-24T16:15:39.361Z,33.37
2019-02-24T16:18:09.803Z,33.46
2019-02-24T16:20:40.310Z,33.59
2019-02-24T16:23:10.741Z,34.59
2019-02-24T16:25:41.203Z,34.31
2019-02-24T16:28:13.397Z,34.22
2019-02-24T16:30:43.860Z,35.70
2019-02-24T16:33:14.726Z,35.14
2019-02-24T16:35:45.520Z,34.63
2019-02-24T16:38:16.050Z,34.19
2019-02-24T16:40:46.542Z,34.14
2019-02-24T16:43:17.037Z,34.72
2019-02-24T16:45:50.035Z,34.97
2019-02-24T16:48:20.893Z,35.04
2019-02-24T16:50:53.660Z,35.58
2019-02-24T16:53:24.148Z,36.00
2019-02-24T16:55:54.599Z,35.71
2019-02-24T16:58:25.109Z,35.59
2019-02-24T17:00:55.622Z,35.88
2019-02-24T17:03:26.039Z,36.75
2019-02-24T17:05:56.918Z,37.32
2019-02-24T17:08:27.398Z,36.88
2019-02-24T17:11:06.725Z,37.29
2019-02-24T17:13:30.835Z,37.75
2019-02-24T17:16:01.784Z,38.08
2019-02-24T17:18:32.233Z,38.39
2019-02-24T17:21:02.693Z,38.57
2019-02-24T17:23:33.585Z,38.39
2019-02-24T17:26:04.043Z,39.26
2019-02-24T17:28:34.572Z,39.25
2019-02-24T17:31:06.965Z,38.27
2019-02-24T17:33:37.656Z,40.33
2019-02-24T17:36:08.128Z,40.14
2019-02-24T17:38:38.582Z,40.44
2019-02-24T17:41:09.074Z,42.65
2019-02-24T17:43:39.902Z,41.92
2019-02-24T17:46:10.829Z,41.29
2019-02-24T17:48:41.529Z,42.09
2019-02-24T17:51:20.578Z,42.30
2019-02-24T17:53:44.220Z,42.65
2019-02-24T17:56:14.701Z,43.04
2019-02-24T17:58:45.290Z,43.33
2019-02-24T18:01:15.766Z,43.50
2019-02-24T18:03:46.210Z,43.39
2019-02-24T18:06:16.725Z,43.75
2019-02-24T18:08:47.180Z,43.98
2019-02-24T18:11:17.691Z,44.68
2019-02-24T18:13:48.503Z,44.67
2019-02-24T18:16:19.270Z,45.89
2019-02-24T18:18:49.729Z,45.54
2019-02-24T18:21:20.534Z,45.54
2019-02-24T18:23:51.071Z,45.58
2019-02-24T18:26:21.542Z,46.26
2019-02-24T18:28:52.012Z,45.58
2019-02-24T18:31:22.825Z,46.03
2019-02-24T18:33:53.831Z,46.21
2019-02-24T18:36:24.351Z,46.37
2019-02-24T18:38:56.229Z,46.32
2019-02-24T18:41:28.386Z,46.61
2019-02-24T18:44:01.358Z,46.62
2019-02-24T18:46:31.799Z,46.74
2019-02-24T18:49:02.275Z,47.06
2019-02-24T18:51:32.800Z,46.88
2019-02-24T18:54:05.563Z,46.92
2019-02-24T18:56:36.766Z,46.53
2019-02-24T18:59:07.553Z,45.47
2019-02-24T19:01:37.994Z,44.58
2019-02-24T19:04:08.724Z,45.10
2019-02-24T19:06:39.528Z,44.51
2019-02-24T19:09:10.599Z,45.17
2019-02-24T19:11:41.048Z,45.22
2019-02-24T19:14:11.928Z,45.30
2019-02-24T19:16:44.326Z,45.67
2019-02-24T19:19:15.316Z,45.54
2019-02-24T19:21:45.852Z,46.01
2019-02-24T19:24:16.281Z,45.64
2019-02-24T19:26:46.731Z,46.18
2019-02-24T19:29:17.884Z,45.95
2019-02-24T19:31:48.733Z,46.29
2019-02-24T19:34:21.097Z,46.52
2019-02-24T19:36:51.624Z,46.58
2019-02-24T19:39:22.548Z,46.16
2019-02-24T19:41:53.425Z,46.28
2019-02-24T19:44:24.358Z,46.42
2019-02-24T19:46:55.247Z,46.60
2019-02-24T19:49:25.709Z,46.00
2019-02-24T19:51:56.209Z,46.06
2019-02-24T19:54:26.641Z,46.47
2019-02-24T19:56:57.101Z,46.85
2019-02-24T19:59:27.859Z,47.09
2019-02-24T20:01:58.701Z,47.59
2019-02-24T20:04:30.049Z,47.73
2019-02-24T20:07:02.062Z,47.75
2019-02-24T20:09:32.910Z,47.11
2019-02-24T20:12:03.365Z,48.09
2019-02-24T20:14:33.837Z,47.59
2019-02-24T20:17:04.274Z,48.06
2019-02-24T20:19:34.730Z,48.55
2019-02-24T20:22:05.380Z,49.14
2019-02-24T20:24:35.892Z,49.61
2019-02-24T20:27:06.337Z,50.01
2019-02-24T20:29:36.833Z,50.53
2019-02-24T20:32:07.287Z,51.24
2019-02-24T20:34:37.875Z,51.49
2019-02-24T20:37:09.745Z,51.71
2019-02-24T20:39:40.173Z,51.85
2019-02-24T20:42:10.617Z,51.57
2019-02-24T20:44:41.483Z,51.51
2019-02-24T20:47:11.969Z,51.72
2019-02-24T20:49:46.458Z,51.83
2019-02-24T20:52:18.791Z,52.12
2019-02-24T20:54:49.234Z,52.02
2019-02-24T20:57:19.710Z,51.26
2019-02-24T20:59:50.166Z,50.79
2019-02-24T21:02:20.983Z,49.52
2019-02-24T21:04:51.467Z,48.71
2019-02-24T21:07:21.914Z,48.41
2019-02-24T21:09:52.347Z,48.46
2019-02-24T21:12:23.218Z,47.97
2019-02-24T21:14:53.652Z,47.73
2019-02-24T21:17:24.472Z,47.68
2019-02-24T21:19:54.962Z,47.99
2019-02-24T21:22:25.474Z,47.92
2019-02-24T21:24:55.938Z,48.07
2019-02-24T21:27:28.217Z,48.28
2019-02-24T21:29:59.493Z,48.79
2019-02-24T21:32:29.930Z,48.33
2019-02-24T21:35:00.425Z,48.11
2019-02-24T21:37:30.869Z,48.79
2019-02-24T21:40:01.353Z,48.66
2019-02-24T21:42:32.210Z,49.50
2019-02-24T21:45:02.667Z,49.65
2019-02-24T21:47:33.107Z,50.02
2019-02-24T21:50:03.686Z,50.31
2019-02-24T21:52:34.454Z,51.26
2019-02-24T21:55:05.262Z,51.29
2019-02-24T21:57:36.174Z,51.84
2019-02-24T22:00:10.033Z,52.09
2019-02-24T22:02:40.519Z,52.87
2019-02-24T22:05:11.000Z,52.96
2019-02-24T22:07:41.449Z,52.99
2019-02-24T22:10:12.507Z,53.29
2019-02-24T22:12:42.957Z,53.70
2019-02-24T22:15:16.323Z,53.80
2019-02-24T22:17:46.812Z,54.24
2019-02-24T22:20:17.714Z,54.90
2019-02-24T22:22:48.144Z,54.86
2019-02-24T22:25:18.633Z,54.96
2019-02-24T22:27:49.094Z,55.80
2019-02-24T22:30:19.577Z,55.74
2019-02-24T22:32:50.080Z,56.53
2019-02-24T22:35:20.513Z,56.70
2019-02-24T22:37:50.958Z,57.14
2019-02-24T22:40:21.452Z,57.19
2019-02-24T22:42:51.880Z,57.45
2019-02-24T22:45:22.316Z,57.64
2019-02-24T22:47:53.105Z,56.51
2019-02-24T22:50:23.540Z,56.12
2019-02-24T22:52:54.454Z,56.01
2019-02-24T22:55:24.947Z,55.50
2019-02-24T22:57:56.362Z,55.46
2019-02-24T23:00:54.718Z,54.24
2019-02-24T23:03:27.347Z,54.86
2019-02-24T23:05:57.802Z,54.13
2019-02-24T23:08:28.298Z,54.17
2019-02-24T23:10:58.738Z,54.46
2019-02-24T23:13:30.459Z,54.25
2019-02-24T23:16:01.350Z,53.94
2019-02-24T23:18:31.797Z,53.99
2019-02-24T23:21:02.619Z,54.76
2019-02-24T23:23:33.119Z,55.30
2019-02-24T23:26:03.557Z,56.09
2019-02-24T23:28:34.035Z,56.75
2019-02-24T23:31:04.642Z,57.07
2019-02-24T23:33:35.090Z,57.27
2019-02-24T23:36:05.534Z,57.56
2019-02-24T23:38:36.045Z,57.47
2019-02-24T23:41:06.494Z,57.08
2019-02-24T23:43:37.306Z,57.70
2019-02-24T23:46:07.790Z,57.52
2019-02-24T23:48:38.630Z,56.93
2019-02-24T23:51:09.124Z,56.54
2019-02-24T23:53:39.650Z,56.85
2019-02-24T23:56:10.442Z,56.68
2019-02-24T23:58:40.882Z,56.89
